Saltar al contingut principal

Dades de l'estació automàtica Espot (2.519 m)

Selector estació i data
?
?

Resum diari

23:00 TU
Dades diàries de l'estació meteorològica
Temperatura mitjana 10.0 °C
Temperatura màxima 12.5 °C 13:13 TU
Temperatura mínima 6.9 °C 23:23 TU
Humitat relativa mitjana 56%
Precipitació acumulada 0.0 mm
Gruix de neu màxim sense dades
Ratxa màxima del vent (10 m) 41.4 km/h - 77º 9:21 TU
Irradiació solar global 30.4 MJ/m2

El tram horari està expressat en Temps Universal (TU). Cal sumar una hora en horari d'hivern i dues en horari d'estiu per passar a l'hora oficial.

Espot (2.519 m)

Metadades estació meteorològica
Municipi Espot
Comarca Pallars Sobirà
Altitud 2519 m
Data alta 01.03.2002
Estat actual Operativa
Dades de període
Període
TU
TM
°C
TX
°C
TN
°C
HRM
%
PPT
mm
VVM (10 m)
km/h
DVM (10 m)
graus
VVX (10 m)
km/h
RS
W/m2
00:00 - 00:30 8.8 9.0 8.5 27 0.0 8.6 201 17.3 0
00:30 - 01:00 8.5 8.7 8.3 32 0.0 6.5 121 16.2 0
01:00 - 01:30 8.7 8.8 8.5 34 0.0 6.1 69 20.5 0
01:30 - 02:00 8.9 9.0 8.6 33 0.0 5.4 50 20.2 0
02:00 - 02:30 8.8 9.1 8.5 33 0.0 5.8 109 16.9 0
02:30 - 03:00 8.9 9.1 8.6 31 0.0 3.6 11 16.6 0
03:00 - 03:30 9.1 9.3 8.9 30 0.0 6.5 55 22.3 0
03:30 - 04:00 8.7 8.9 8.6 30 0.0 6.5 41 22.0 0
04:00 - 04:30 8.7 8.9 8.4 30 0.0 5.4 16 27.4 2
04:30 - 05:00 9.0 9.2 8.7 30 0.0 5.4 26 24.8 42
05:00 - 05:30 9.2 9.5 9.1 31 0.0 7.9 314 27.7 116
05:30 - 06:00 9.6 9.7 9.3 31 0.0 7.9 254 25.6 209
06:00 - 06:30 9.9 10.3 9.6 32 0.0 6.8 218 26.3 307
06:30 - 07:00 10.5 10.9 10.1 30 0.0 6.5 199 21.2 406
07:00 - 07:30 11.0 11.5 10.1 30 0.0 7.6 103 29.2 506
07:30 - 08:00 10.9 11.3 10.4 33 0.0 4.0 119 11.5 599
08:00 - 08:30 10.8 11.2 10.6 34 0.0 6.1 181 18.0 691
08:30 - 09:00 10.8 11.2 10.4 39 0.0 8.3 106 23.0 775
09:00 - 09:30 11.0 11.4 10.5 40 0.0 16.9 96 41.4 851
09:30 - 10:00 11.2 11.5 10.9 43 0.0 13.0 93 32.8 910
10:00 - 10:30 11.0 11.4 10.7 50 0.0 14.4 78 26.3 959
10:30 - 11:00 11.3 12.1 10.9 51 0.0 14.0 88 27.0 996
11:00 - 11:30 11.4 11.9 11.0 51 0.0 16.2 77 30.6 1.023
11:30 - 12:00 11.5 11.9 11.2 50 0.0 16.6 79 25.6 1.036
12:00 - 12:30 11.7 12.0 11.5 50 0.0 15.5 70 26.3 1.033
12:30 - 13:00 11.8 12.2 11.6 52 0.0 15.5 73 25.6 1.015
13:00 - 13:30 12.0 12.5 11.7 58 0.0 10.8 84 26.6 957
13:30 - 14:00 11.9 12.2 11.4 62 0.0 8.6 87 21.2 956
14:00 - 14:30 11.9 12.4 11.4 65 0.0 9.4 92 19.1 938
14:30 - 15:00 11.9 12.3 11.4 66 0.0 9.0 86 18.0 809
15:00 - 15:30 11.4 11.8 10.8 72 0.0 7.6 80 19.8 493
15:30 - 16:00 11.1 11.5 10.7 73 0.0 6.1 79 13.7 272
16:00 - 16:30 11.6 12.4 11.2 70 0.0 6.5 71 16.2 498
16:30 - 17:00 11.1 11.4 10.8 72 0.0 7.9 70 17.3 206
17:00 - 17:30 10.9 11.5 10.4 73 0.0 5.4 68 13.0 143
17:30 - 18:00 10.2 10.4 10.1 80 0.0 8.3 87 17.6 89
18:00 - 18:30 9.9 10.1 9.7 82 0.0 9.4 81 14.0 46
18:30 - 19:00 9.5 9.7 9.3 87 0.0 6.8 60 12.2 23
19:00 - 19:30 9.2 9.3 9.1 87 0.0 2.9 69 8.3 15
19:30 - 20:00 9.0 9.2 8.8 89 0.0 0.7 42 4.0 1
20:00 - 20:30 8.7 8.9 8.6 92 0.0 2.2 56 9.0 0
20:30 - 21:00 8.4 8.6 8.2 94 0.0 5.0 80 10.4 0
21:00 - 21:30 8.0 8.1 7.8 95 0.0 1.8 73 4.3 0
21:30 - 22:00 8.3 8.7 7.8 84 0.0 3.2 198 11.5 0
22:00 - 22:30 8.1 8.8 7.5 87 0.0 2.2 253 8.3 0
22:30 - 23:00 7.4 7.7 7.3 92 0.0 1.1 237 5.8 0
23:00 - 23:30 7.2 7.7 6.9 95 0.0 0.7 200 3.2 0

Les dades en taronja només han passat un control de qualitat automàtic. Resta pendent la seva validació definitiva.